sensor_id;sensor_type;location;lat;lon;timestamp;pressure;altitude;pressure_sealevel;temperature;humidity
40205;BME280;26963;42.666;23.366;2022-09-09T00:10:14;95161.81;;;20.51;55.37
40205;BME280;26963;42.666;23.366;2022-09-09T00:20:54;95180.56;;;20.56;55.80
40205;BME280;26963;42.666;23.366;2022-09-09T00:23:34;95169.06;;;20.47;55.79
40205;BME280;26963;42.666;23.366;2022-09-09T00:28:58;95152.06;;;20.50;56.01
40205;BME280;26963;42.666;23.366;2022-09-09T00:31:31;95085.81;;;20.07;55.71
40205;BME280;26963;42.666;23.366;2022-09-09T00:34:03;95138.81;;;20.32;55.66
40205;BME280;26963;42.666;23.366;2022-09-09T00:36:31;95137.69;;;20.33;55.71
40205;BME280;26963;42.666;23.366;2022-09-09T00:39:00;95132.63;;;20.32;56.17
40205;BME280;26963;42.666;23.366;2022-09-09T00:53:56;95134.78;;;20.26;56.20
40205;BME280;26963;42.666;23.366;2022-09-09T00:56:31;95129.88;;;20.16;55.98
40205;BME280;26963;42.666;23.366;2022-09-09T00:59:11;95136.19;;;20.20;55.80
40205;BME280;26963;42.666;23.366;2022-09-09T01:01:40;95068.28;;;19.76;55.92
40205;BME280;26963;42.666;23.366;2022-09-09T01:04:13;95093.13;;;19.90;55.35
40205;BME280;26963;42.666;23.366;2022-09-09T01:06:52;95105.06;;;20.01;55.09
40205;BME280;26963;42.666;23.366;2022-09-09T01:09:42;95111.63;;;20.00;55.00
40205;BME280;26963;42.666;23.366;2022-09-09T01:12:34;95138.28;;;20.11;55.33
40205;BME280;26963;42.666;23.366;2022-09-09T01:15:10;95128.69;;;20.01;54.76
40205;BME280;26963;42.666;23.366;2022-09-09T01:20:15;95106.25;;;19.88;54.72
40205;BME280;26963;42.666;23.366;2022-09-09T01:28:04;95118.56;;;19.98;55.12
40205;BME280;26963;42.666;23.366;2022-09-09T01:30:38;95142.56;;;20.12;54.94
40205;BME280;26963;42.666;23.366;2022-09-09T01:33:04;95085.25;;;19.85;54.92
40205;BME280;26963;42.666;23.366;2022-09-09T01:38:13;95127.50;;;20.14;55.43
40205;BME280;26963;42.666;23.366;2022-09-09T01:40:39;95149.34;;;20.18;55.73
40205;BME280;26963;42.666;23.366;2022-09-09T01:43:08;95085.94;;;19.69;56.05
40205;BME280;26963;42.666;23.366;2022-09-09T01:45:34;95153.75;;;20.10;56.56
40205;BME280;26963;42.666;23.366;2022-09-09T01:48:28;95144.84;;;20.10;56.73
40205;BME280;26963;42.666;23.366;2022-09-09T01:50:55;95096.22;;;19.76;56.99
40205;BME280;26963;42.666;23.366;2022-09-09T01:53:21;95097.50;;;19.66;56.91
40205;BME280;26963;42.666;23.366;2022-09-09T02:01:50;95108.88;;;19.56;56.72
40205;BME280;26963;42.666;23.366;2022-09-09T02:07:39;95164.16;;;19.92;56.76
40205;BME280;26963;42.666;23.366;2022-09-09T02:10:18;95151.19;;;19.85;57.38
40205;BME280;26963;42.666;23.366;2022-09-09T02:12:52;95107.88;;;19.48;57.54
40205;BME280;26963;42.666;23.366;2022-09-09T02:18:00;95130.69;;;19.60;57.38
40205;BME280;26963;42.666;23.366;2022-09-09T02:20:31;95090.59;;;19.40;57.62
40205;BME280;26963;42.666;23.366;2022-09-09T02:22:59;95089.13;;;19.43;57.05
40205;BME280;26963;42.666;23.366;2022-09-09T02:25:28;95118.16;;;19.55;57.16
40205;BME280;26963;42.666;23.366;2022-09-09T02:27:55;95118.06;;;19.39;57.47
40205;BME280;26963;42.666;23.366;2022-09-09T02:30:28;95132.44;;;19.39;58.16
40205;BME280;26963;42.666;23.366;2022-09-09T02:32:57;95134.00;;;19.40;57.94
40205;BME280;26963;42.666;23.366;2022-09-09T02:35:24;95130.41;;;19.36;57.96
40205;BME280;26963;42.666;23.366;2022-09-09T02:37:53;95095.22;;;19.12;58.22
40205;BME280;26963;42.666;23.366;2022-09-09T02:40:23;95125.22;;;19.31;58.52
40205;BME280;26963;42.666;23.366;2022-09-09T02:42:49;95048.28;;;18.70;58.72
40205;BME280;26963;42.666;23.366;2022-09-09T02:45:19;95056.63;;;18.78;58.54
40205;BME280;26963;42.666;23.366;2022-09-09T02:53:24;95035.31;;;18.51;58.98
40205;BME280;26963;42.666;23.366;2022-09-09T02:56:18;95126.06;;;19.19;58.90
40205;BME280;26963;42.666;23.366;2022-09-09T02:58:45;95158.00;;;19.38;59.06
40205;BME280;26963;42.666;23.366;2022-09-09T03:01:11;95085.97;;;18.88;58.97
40205;BME280;26963;42.666;23.366;2022-09-09T03:03:43;95136.56;;;19.21;59.17
40205;BME280;26963;42.666;23.366;2022-09-09T03:06:09;95139.72;;;19.23;58.84
40205;BME280;26963;42.666;23.366;2022-09-09T03:08:37;95141.88;;;19.17;58.96
40205;BME280;26963;42.666;23.366;2022-09-09T03:11:05;95139.97;;;19.18;58.86
40205;BME280;26963;42.666;23.366;2022-09-09T03:13:30;95152.81;;;19.21;59.32
40205;BME280;26963;42.666;23.366;2022-09-09T03:15:59;95165.03;;;19.27;59.48
40205;BME280;26963;42.666;23.366;2022-09-09T03:18:27;95154.41;;;19.22;59.45
40205;BME280;26963;42.666;23.366;2022-09-09T03:20:53;95102.94;;;18.85;59.62
40205;BME280;26963;42.666;23.366;2022-09-09T03:23:19;95151.81;;;19.13;59.61
40205;BME280;26963;42.666;23.366;2022-09-09T03:25:49;95144.50;;;19.01;59.39
40205;BME280;26963;42.666;23.366;2022-09-09T03:28:16;95152.06;;;19.08;59.08
40205;BME280;26963;42.666;23.366;2022-09-09T03:30:42;95157.16;;;18.97;59.24
40205;BME280;26963;42.666;23.366;2022-09-09T03:33:07;95150.59;;;18.98;59.36
40205;BME280;26963;42.666;23.366;2022-09-09T03:35:33;95151.53;;;18.90;59.51
40205;BME280;26963;42.666;23.366;2022-09-09T03:37:58;95146.38;;;18.88;59.56
40205;BME280;26963;42.666;23.366;2022-09-09T03:40:26;95134.66;;;18.84;59.75
40205;BME280;26963;42.666;23.366;2022-09-09T03:42:54;95140.19;;;18.88;59.94
40205;BME280;26963;42.666;23.366;2022-09-09T03:45:20;95090.50;;;18.59;59.76
40205;BME280;26963;42.666;23.366;2022-09-09T03:48:00;95096.16;;;18.54;59.61
40205;BME280;26963;42.666;23.366;2022-09-09T03:50:26;95161.88;;;18.88;59.69
40205;BME280;26963;42.666;23.366;2022-09-09T03:52:51;95164.13;;;18.86;59.55
40205;BME280;26963;42.666;23.366;2022-09-09T03:55:20;95091.19;;;18.44;59.48
40205;BME280;26963;42.666;23.366;2022-09-09T03:57:46;95121.22;;;18.63;59.38
40205;BME280;26963;42.666;23.366;2022-09-09T04:00:11;95160.28;;;18.87;59.38
40205;BME280;26963;42.666;23.366;2022-09-09T04:02:40;95116.94;;;18.50;59.36
40205;BME280;26963;42.666;23.366;2022-09-09T04:05:06;95149.66;;;18.69;59.34
40205;BME280;26963;42.666;23.366;2022-09-09T04:07:32;95168.41;;;18.74;59.83
40205;BME280;26963;42.666;23.366;2022-09-09T04:09:57;95173.19;;;18.78;60.24
40205;BME280;26963;42.666;23.366;2022-09-09T04:12:25;95147.19;;;18.64;60.09
40205;BME280;26963;42.666;23.366;2022-09-09T04:14:51;95153.19;;;18.70;60.02
40205;BME280;26963;42.666;23.366;2022-09-09T04:17:16;95156.91;;;18.78;59.99
40205;BME280;26963;42.666;23.366;2022-09-09T04:20:01;95168.88;;;18.89;60.10
40205;BME280;26963;42.666;23.366;2022-09-09T04:22:27;95125.03;;;18.74;60.10
40205;BME280;26963;42.666;23.366;2022-09-09T04:24:52;95159.84;;;18.97;59.73
40205;BME280;26963;42.666;23.366;2022-09-09T04:27:21;95143.59;;;18.85;59.65
40205;BME280;26963;42.666;23.366;2022-09-09T04:29:46;95131.28;;;18.75;59.94
40205;BME280;26963;42.666;23.366;2022-09-09T04:32:15;95120.97;;;18.68;59.63
40205;BME280;26963;42.666;23.366;2022-09-09T04:34:41;95095.94;;;18.59;59.51
40205;BME280;26963;42.666;23.366;2022-09-09T04:37:09;95151.28;;;18.95;59.39
40205;BME280;26963;42.666;23.366;2022-09-09T04:39:34;95110.84;;;18.65;59.59
40205;BME280;26963;42.666;23.366;2022-09-09T04:42:00;95164.38;;;19.05;59.48
40205;BME280;26963;42.666;23.366;2022-09-09T04:44:31;95172.28;;;18.98;59.90
40205;BME280;26963;42.666;23.366;2022-09-09T04:46:56;95168.91;;;19.01;59.92
40205;BME280;26963;42.666;23.366;2022-09-09T04:49:38;95171.81;;;19.09;59.81
40205;BME280;26963;42.666;23.366;2022-09-09T04:52:04;95121.09;;;18.84;59.43
40205;BME280;26963;42.666;23.366;2022-09-09T04:54:30;95163.56;;;19.17;59.37
40205;BME280;26963;42.666;23.366;2022-09-09T04:57:00;95159.84;;;19.22;59.54
40205;BME280;26963;42.666;23.366;2022-09-09T04:59:42;95133.84;;;19.09;59.44
40205;BME280;26963;42.666;23.366;2022-09-09T05:02:13;95128.53;;;19.12;58.69
40205;BME280;26963;42.666;23.366;2022-09-09T05:04:39;95154.06;;;19.23;58.53
40205;BME280;26963;42.666;23.366;2022-09-09T05:07:05;95123.72;;;19.05;58.52
40205;BME280;26963;42.666;23.366;2022-09-09T05:09:31;95151.13;;;19.29;58.84
40205;BME280;26963;42.666;23.366;2022-09-09T05:12:03;95135.28;;;19.31;58.71
40205;BME280;26963;42.666;23.366;2022-09-09T05:14:32;95122.75;;;19.26;58.97
40205;BME280;26963;42.666;23.366;2022-09-09T05:16:58;95117.53;;;19.33;58.42
40205;BME280;26963;42.666;23.366;2022-09-09T05:19:26;95096.69;;;19.09;58.46
40205;BME280;26963;42.666;23.366;2022-09-09T05:22:19;95153.88;;;19.57;57.24
40205;BME280;26963;42.666;23.366;2022-09-09T05:24:48;95120.91;;;19.43;57.13
40205;BME280;26963;42.666;23.366;2022-09-09T05:27:22;95123.69;;;19.59;57.12
40205;BME280;26963;42.666;23.366;2022-09-09T05:29:49;95116.75;;;19.61;56.61
40205;BME280;26963;42.666;23.366;2022-09-09T05:32:20;95144.28;;;19.76;56.67
40205;BME280;26963;42.666;23.366;2022-09-09T05:34:48;95105.19;;;19.64;56.47
40205;BME280;26963;42.666;23.366;2022-09-09T05:37:13;95134.53;;;19.87;56.76
40205;BME280;26963;42.666;23.366;2022-09-09T05:39:45;95112.94;;;19.78;56.22
40205;BME280;26963;42.666;23.366;2022-09-09T05:42:41;95131.69;;;19.96;55.38
40205;BME280;26963;42.666;23.366;2022-09-09T05:45:08;95139.34;;;20.22;55.01
40205;BME280;26963;42.666;23.366;2022-09-09T05:47:37;95127.59;;;20.18;53.58
40205;BME280;26963;42.666;23.366;2022-09-09T05:50:08;95158.34;;;20.38;54.00
40205;BME280;26963;42.666;23.366;2022-09-09T05:52:34;95151.28;;;20.33;53.56
40205;BME280;26963;42.666;23.366;2022-09-09T05:55:03;95157.78;;;20.45;53.55
40205;BME280;26963;42.666;23.366;2022-09-09T05:57:29;95139.53;;;20.61;53.33
40205;BME280;26963;42.666;23.366;2022-09-09T05:59:55;95133.81;;;20.66;53.03
40205;BME280;26963;42.666;23.366;2022-09-09T06:02:20;95146.91;;;20.77;52.72
40205;BME280;26963;42.666;23.366;2022-09-09T06:04:54;95153.66;;;20.83;52.36
40205;BME280;26963;42.666;23.366;2022-09-09T06:07:23;95158.84;;;20.88;51.98
40205;BME280;26963;42.666;23.366;2022-09-09T06:10:11;95164.88;;;20.97;52.20
40205;BME280;26963;42.666;23.366;2022-09-09T06:12:40;95143.81;;;20.94;51.81
40205;BME280;26963;42.666;23.366;2022-09-09T06:15:08;95160.38;;;21.05;51.75
40205;BME280;26963;42.666;23.366;2022-09-09T06:17:34;95094.47;;;20.60;51.13
40205;BME280;26963;42.666;23.366;2022-09-09T06:23:44;95074.47;;;20.36;51.48
40205;BME280;26963;42.666;23.366;2022-09-09T06:26:15;95143.22;;;20.85;50.51
40205;BME280;26963;42.666;23.366;2022-09-09T06:28:46;95159.88;;;20.99;51.10
40205;BME280;26963;42.666;23.366;2022-09-09T06:31:21;95162.63;;;21.19;50.58
40205;BME280;26963;42.666;23.366;2022-09-09T06:33:48;95123.56;;;21.27;49.76
40205;BME280;26963;42.666;23.366;2022-09-09T06:36:19;95111.44;;;21.60;48.27
40205;BME280;26963;42.666;23.366;2022-09-09T06:38:49;95108.38;;;22.05;46.59
40205;BME280;26963;42.666;23.366;2022-09-09T06:41:17;95132.63;;;22.56;45.64
40205;BME280;26963;42.666;23.366;2022-09-09T06:43:47;95140.22;;;22.93;44.67
40205;BME280;26963;42.666;23.366;2022-09-09T06:46:15;95120.91;;;23.06;44.43
40205;BME280;26963;42.666;23.366;2022-09-09T06:48:51;95112.06;;;23.43;43.44
40205;BME280;26963;42.666;23.366;2022-09-09T06:51:25;95148.00;;;24.09;42.65
40205;BME280;26963;42.666;23.366;2022-09-09T06:53:53;95150.31;;;24.45;41.14
40205;BME280;26963;42.666;23.366;2022-09-09T06:56:26;95162.41;;;24.85;40.38
40205;BME280;26963;42.666;23.366;2022-09-09T06:58:57;95160.88;;;25.51;39.61
40205;BME280;26963;42.666;23.366;2022-09-09T07:01:28;95149.41;;;26.15;36.91
40205;BME280;26963;42.666;23.366;2022-09-09T07:03:55;95151.44;;;26.69;36.42
40205;BME280;26963;42.666;23.366;2022-09-09T07:06:33;95163.22;;;27.42;35.37
40205;BME280;26963;42.666;23.366;2022-09-09T07:09:20;95160.25;;;28.10;34.15
40205;BME280;26963;42.666;23.366;2022-09-09T07:11:50;95167.53;;;29.02;32.35
40205;BME280;26963;42.666;23.366;2022-09-09T07:14:19;95147.44;;;29.47;30.61
40205;BME280;26963;42.666;23.366;2022-09-09T07:16:45;95152.50;;;30.21;30.20
40205;BME280;26963;42.666;23.366;2022-09-09T07:19:12;95104.28;;;30.57;29.29
40205;BME280;26963;42.666;23.366;2022-09-09T07:21:39;95145.47;;;31.43;28.53
40205;BME280;26963;42.666;23.366;2022-09-09T07:24:14;95147.34;;;32.10;27.35
40205;BME280;26963;42.666;23.366;2022-09-09T07:26:39;95145.06;;;32.78;26.59
40205;BME280;26963;42.666;23.366;2022-09-09T07:29:06;95145.22;;;33.37;25.19
40205;BME280;26963;42.666;23.366;2022-09-09T07:31:34;95135.47;;;34.04;24.61
40205;BME280;26963;42.666;23.366;2022-09-09T07:34:04;95139.31;;;34.61;24.31
40205;BME280;26963;42.666;23.366;2022-09-09T07:36:35;95130.66;;;34.85;23.27
40205;BME280;26963;42.666;23.366;2022-09-09T07:39:08;95098.13;;;35.08;23.18
40205;BME280;26963;42.666;23.366;2022-09-09T07:41:41;95122.22;;;35.59;22.05
40205;BME280;26963;42.666;23.366;2022-09-09T07:44:16;95128.34;;;35.76;21.95
40205;BME280;26963;42.666;23.366;2022-09-09T07:46:46;95142.84;;;36.37;21.07
40205;BME280;26963;42.666;23.366;2022-09-09T07:49:34;95092.09;;;36.11;20.69
40205;BME280;26963;42.666;23.366;2022-09-09T07:52:00;95141.88;;;36.63;20.69
40205;BME280;26963;42.666;23.366;2022-09-09T07:54:28;95148.41;;;36.78;20.87
40205;BME280;26963;42.666;23.366;2022-09-09T07:56:54;95125.59;;;37.11;20.33
40205;BME280;26963;42.666;23.366;2022-09-09T07:59:20;95131.16;;;37.20;19.21
40205;BME280;26963;42.666;23.366;2022-09-09T08:01:47;95116.13;;;37.09;20.01
40205;BME280;26963;42.666;23.366;2022-09-09T08:04:16;95106.38;;;37.13;19.41
40205;BME280;26963;42.666;23.366;2022-09-09T08:07:00;95138.63;;;36.64;20.29
40205;BME280;26963;42.666;23.366;2022-09-09T08:09:28;95141.53;;;35.40;21.93
40205;BME280;26963;42.666;23.366;2022-09-09T08:11:55;95084.31;;;34.30;22.06
40205;BME280;26963;42.666;23.366;2022-09-09T08:14:28;95150.16;;;33.75;23.65
40205;BME280;26963;42.666;23.366;2022-09-09T08:16:58;95134.78;;;34.00;23.94
40205;BME280;26963;42.666;23.366;2022-09-09T08:19:25;95149.41;;;34.29;23.31
40205;BME280;26963;42.666;23.366;2022-09-09T08:21:51;95155.75;;;34.43;23.86
40205;BME280;26963;42.666;23.366;2022-09-09T08:24:19;95126.25;;;35.10;22.50
40205;BME280;26963;42.666;23.366;2022-09-09T08:26:48;95129.44;;;35.21;22.16
40205;BME280;26963;42.666;23.366;2022-09-09T08:29:15;95132.75;;;35.64;22.11
40205;BME280;26963;42.666;23.366;2022-09-09T08:31:47;95068.19;;;35.12;21.33
40205;BME280;26963;42.666;23.366;2022-09-09T08:34:13;95125.63;;;34.28;23.29
40205;BME280;26963;42.666;23.366;2022-09-09T08:36:42;95088.06;;;33.10;23.94
40205;BME280;26963;42.666;23.366;2022-09-09T08:39:09;95138.84;;;32.74;25.34
40205;BME280;26963;42.666;23.366;2022-09-09T08:52:55;95088.28;;;29.55;29.64
40205;BME280;26963;42.666;23.366;2022-09-09T08:55:28;95131.03;;;29.71;30.28
40205;BME280;26963;42.666;23.366;2022-09-09T08:58:08;95116.03;;;30.06;30.68
40205;BME280;26963;42.666;23.366;2022-09-09T09:06:59;95123.41;;;30.13;29.92
40205;BME280;26963;42.666;23.366;2022-09-09T09:12:11;95127.06;;;30.06;31.04
40205;BME280;26963;42.666;23.366;2022-09-09T09:14:40;95116.53;;;30.25;29.88
40205;BME280;26963;42.666;23.366;2022-09-09T09:17:18;95116.78;;;30.38;29.53
40205;BME280;26963;42.666;23.366;2022-09-09T09:19:46;95044.25;;;29.79;29.53
40205;BME280;26963;42.666;23.366;2022-09-09T09:22:24;95073.81;;;29.78;29.82
40205;BME280;26963;42.666;23.366;2022-09-09T09:24:55;95113.22;;;29.75;30.13
40205;BME280;26963;42.666;23.366;2022-09-09T09:30:19;95109.34;;;29.38;32.09
40205;BME280;26963;42.666;23.366;2022-09-09T09:33:08;95101.19;;;29.24;31.66
40205;BME280;26963;42.666;23.366;2022-09-09T09:35:38;95132.66;;;29.30;31.93
40205;BME280;26963;42.666;23.366;2022-09-09T09:38:20;95120.88;;;29.22;32.08
40205;BME280;26963;42.666;23.366;2022-09-09T09:41:05;95042.69;;;28.74;32.79
40205;BME280;26963;42.666;23.366;2022-09-09T09:43:33;95123.94;;;29.35;32.91
40205;BME280;26963;42.666;23.366;2022-09-09T09:46:19;95105.00;;;29.37;31.87
40205;BME280;26963;42.666;23.366;2022-09-09T09:49:09;95095.25;;;29.64;31.81
40205;BME280;26963;42.666;23.366;2022-09-09T09:51:39;95065.31;;;29.31;32.02
40205;BME280;26963;42.666;23.366;2022-09-09T09:54:27;95104.16;;;29.44;32.64
40205;BME280;26963;42.666;23.366;2022-09-09T09:56:55;95031.97;;;28.84;31.76
40205;BME280;26963;42.666;23.366;2022-09-09T10:01:53;95085.22;;;29.08;32.45
40205;BME280;26963;42.666;23.366;2022-09-09T10:04:22;95094.78;;;28.96;32.36
40205;BME280;26963;42.666;23.366;2022-09-09T10:06:49;95094.34;;;29.01;32.42
40205;BME280;26963;42.666;23.366;2022-09-09T10:09:27;95092.41;;;28.94;32.72
40205;BME280;26963;42.666;23.366;2022-09-09T10:17:23;95098.47;;;28.82;33.92
40205;BME280;26963;42.666;23.366;2022-09-09T10:22:37;95108.59;;;28.36;33.70
40205;BME280;26963;42.666;23.366;2022-09-09T10:35:36;95110.06;;;27.85;35.21
40205;BME280;26963;42.666;23.366;2022-09-09T10:38:17;95110.09;;;27.81;35.43
40205;BME280;26963;42.666;23.366;2022-09-09T10:40:58;95106.94;;;27.75;35.27
40205;BME280;26963;42.666;23.366;2022-09-09T10:52:24;95104.34;;;27.32;36.82
40205;BME280;26963;42.666;23.366;2022-09-09T10:57:31;95108.66;;;27.44;36.53
40205;BME280;26963;42.666;23.366;2022-09-09T11:00:04;95079.63;;;27.32;36.33
40205;BME280;26963;42.666;23.366;2022-09-09T11:02:34;95105.09;;;27.50;36.87
40205;BME280;26963;42.666;23.366;2022-09-09T11:05:05;95102.28;;;27.61;37.54
40205;BME280;26963;42.666;23.366;2022-09-09T11:08:05;95071.78;;;27.34;37.52
40205;BME280;26963;42.666;23.366;2022-09-09T11:13:47;95099.19;;;27.52;37.89
40205;BME280;26963;42.666;23.366;2022-09-09T11:19:34;95107.06;;;27.50;37.58
40205;BME280;26963;42.666;23.366;2022-09-09T11:22:31;95105.09;;;27.50;37.69
40205;BME280;26963;42.666;23.366;2022-09-09T11:27:31;95051.72;;;27.37;36.95
40205;BME280;26963;42.666;23.366;2022-09-09T11:30:20;95088.09;;;27.81;36.65
40205;BME280;26963;42.666;23.366;2022-09-09T11:35:50;95079.72;;;27.99;36.36
40205;BME280;26963;42.666;23.366;2022-09-09T11:38:31;94986.63;;;27.41;36.54
40205;BME280;26963;42.666;23.366;2022-09-09T11:41:05;95011.28;;;27.48;36.55
40205;BME280;26963;42.666;23.366;2022-09-09T11:46:02;95006.66;;;27.24;37.69
40205;BME280;26963;42.666;23.366;2022-09-09T11:49:23;95054.88;;;27.46;37.88
40205;BME280;26963;42.666;23.366;2022-09-09T11:51:50;95038.41;;;27.39;38.53
40205;BME280;26963;42.666;23.366;2022-09-09T11:54:33;95024.59;;;27.54;37.67
40205;BME280;26963;42.666;23.366;2022-09-09T11:57:38;95019.19;;;27.39;38.11
40205;BME280;26963;42.666;23.366;2022-09-09T12:00:05;95027.41;;;27.35;39.06
40205;BME280;26963;42.666;23.366;2022-09-09T12:02:31;95020.78;;;27.26;38.70
40205;BME280;26963;42.666;23.366;2022-09-09T12:05:17;95016.53;;;27.10;39.07
40205;BME280;26963;42.666;23.366;2022-09-09T12:08:01;95038.06;;;27.15;38.56
40205;BME280;26963;42.666;23.366;2022-09-09T12:10:31;95026.31;;;27.15;38.92
40205;BME280;26963;42.666;23.366;2022-09-09T12:13:27;95027.84;;;27.19;39.26
40205;BME280;26963;42.666;23.366;2022-09-09T12:15:58;95017.69;;;27.13;38.93
40205;BME280;26963;42.666;23.366;2022-09-09T12:18:26;95014.53;;;27.18;38.44
40205;BME280;26963;42.666;23.366;2022-09-09T12:23:52;94963.59;;;27.06;37.92
40205;BME280;26963;42.666;23.366;2022-09-09T12:26:43;95013.66;;;27.46;38.00
40205;BME280;26963;42.666;23.366;2022-09-09T12:29:44;94972.91;;;27.19;38.35
40205;BME280;26963;42.666;23.366;2022-09-09T12:32:15;95007.75;;;27.52;38.36
40205;BME280;26963;42.666;23.366;2022-09-09T12:34:53;95000.97;;;27.71;38.04
40205;BME280;26963;42.666;23.366;2022-09-09T12:37:32;95003.66;;;27.78;38.55
40205;BME280;26963;42.666;23.366;2022-09-09T12:40:02;94935.16;;;27.49;38.56
40205;BME280;26963;42.666;23.366;2022-09-09T12:42:29;94983.66;;;27.77;37.80
40205;BME280;26963;42.666;23.366;2022-09-09T12:45:14;94972.69;;;27.70;38.04
40205;BME280;26963;42.666;23.366;2022-09-09T12:50:57;94979.78;;;27.64;38.24
40205;BME280;26963;42.666;23.366;2022-09-09T12:53:31;94925.03;;;27.24;38.86
40205;BME280;26963;42.666;23.366;2022-09-09T12:56:01;94990.72;;;27.75;38.53
40205;BME280;26963;42.666;23.366;2022-09-09T12:58:30;94976.56;;;27.76;38.95
40205;BME280;26963;42.666;23.366;2022-09-09T13:01:01;94984.47;;;27.74;38.86
40205;BME280;26963;42.666;23.366;2022-09-09T13:03:32;94957.81;;;27.64;39.17
40205;BME280;26963;42.666;23.366;2022-09-09T13:06:10;94930.38;;;27.57;39.17
40205;BME280;26963;42.666;23.366;2022-09-09T13:08:37;94954.13;;;27.85;38.44
40205;BME280;26963;42.666;23.366;2022-09-09T13:11:07;94966.75;;;27.75;38.95
40205;BME280;26963;42.666;23.366;2022-09-09T13:13:39;94959.75;;;27.67;38.99
40205;BME280;26963;42.666;23.366;2022-09-09T13:16:18;94930.47;;;27.42;38.90
40205;BME280;26963;42.666;23.366;2022-09-09T13:18:44;94965.59;;;27.73;39.38
40205;BME280;26963;42.666;23.366;2022-09-09T13:21:12;94960.47;;;27.78;38.93
40205;BME280;26963;42.666;23.366;2022-09-09T13:23:48;94913.97;;;27.46;38.71
40205;BME280;26963;42.666;23.366;2022-09-09T13:26:25;94958.59;;;27.68;39.10
40205;BME280;26963;42.666;23.366;2022-09-09T13:28:54;94897.53;;;27.35;39.16
40205;BME280;26963;42.666;23.366;2022-09-09T13:31:27;94953.09;;;27.64;39.24
40205;BME280;26963;42.666;23.366;2022-09-09T13:33:53;94912.47;;;27.30;40.30
40205;BME280;26963;42.666;23.366;2022-09-09T13:36:31;94946.16;;;27.45;39.82
40205;BME280;26963;42.666;23.366;2022-09-09T13:38:59;94935.16;;;27.38;40.04
40205;BME280;26963;42.666;23.366;2022-09-09T13:41:30;94892.16;;;27.13;40.21
40205;BME280;26963;42.666;23.366;2022-09-09T13:43:57;94943.81;;;27.37;40.10
40205;BME280;26963;42.666;23.366;2022-09-09T13:51:49;94920.72;;;27.23;40.76
40205;BME280;26963;42.666;23.366;2022-09-09T13:54:18;94915.25;;;27.19;40.83
40205;BME280;26963;42.666;23.366;2022-09-09T13:56:45;94921.22;;;27.07;40.64
40205;BME280;26963;42.666;23.366;2022-09-09T13:59:13;94905.59;;;26.90;40.96
40205;BME280;26963;42.666;23.366;2022-09-09T14:01:47;94913.78;;;26.97;41.32
40205;BME280;26963;42.666;23.366;2022-09-09T14:04:18;94915.00;;;26.96;41.01
40205;BME280;26963;42.666;23.366;2022-09-09T14:06:46;94897.00;;;26.80;41.20
40205;BME280;26963;42.666;23.366;2022-09-09T14:09:17;94873.16;;;26.63;41.64
40205;BME280;26963;42.666;23.366;2022-09-09T14:11:45;94925.16;;;26.99;41.02
40205;BME280;26963;42.666;23.366;2022-09-09T14:14:11;94875.84;;;26.66;41.39
40205;BME280;26963;42.666;23.366;2022-09-09T14:16:40;94910.28;;;26.89;41.14
40205;BME280;26963;42.666;23.366;2022-09-09T14:19:05;94911.13;;;26.82;41.44
40205;BME280;26963;42.666;23.366;2022-09-09T14:21:31;94917.34;;;26.90;41.38
40205;BME280;26963;42.666;23.366;2022-09-09T14:23:59;94902.13;;;26.78;41.34
40205;BME280;26963;42.666;23.366;2022-09-09T14:26:25;94868.81;;;26.65;41.13
40205;BME280;26963;42.666;23.366;2022-09-09T14:28:54;94895.06;;;26.77;40.96
40205;BME280;26963;42.666;23.366;2022-09-09T14:31:20;94904.44;;;26.83;40.59
40205;BME280;26963;42.666;23.366;2022-09-09T14:33:46;94900.13;;;26.82;40.01
40205;BME280;26963;42.666;23.366;2022-09-09T14:36:12;94885.31;;;26.54;39.96
40205;BME280;26963;42.666;23.366;2022-09-09T14:38:40;94898.22;;;26.65;40.19
40205;BME280;26963;42.666;23.366;2022-09-09T14:41:14;94905.66;;;26.68;41.02
40205;BME280;26963;42.666;23.366;2022-09-09T14:43:42;94895.09;;;26.63;41.44
40205;BME280;26963;42.666;23.366;2022-09-09T14:46:11;94856.38;;;26.28;41.56
40205;BME280;26963;42.666;23.366;2022-09-09T14:48:52;94853.28;;;26.26;42.30
40205;BME280;26963;42.666;23.366;2022-09-09T14:51:21;94878.31;;;26.39;42.25
40205;BME280;26963;42.666;23.366;2022-09-09T14:53:58;94890.81;;;26.47;41.57
40205;BME280;26963;42.666;23.366;2022-09-09T14:56:36;94896.28;;;26.51;41.95
40205;BME280;26963;42.666;23.366;2022-09-09T14:59:03;94882.63;;;26.36;42.55
40205;BME280;26963;42.666;23.366;2022-09-09T15:01:32;94890.44;;;26.38;42.16
40205;BME280;26963;42.666;23.366;2022-09-09T15:04:01;94831.00;;;25.84;42.35
40205;BME280;26963;42.666;23.366;2022-09-09T15:06:29;94904.97;;;26.20;42.85
40205;BME280;26963;42.666;23.366;2022-09-09T15:08:58;94916.34;;;26.15;43.08
40205;BME280;26963;42.666;23.366;2022-09-09T15:11:26;94901.84;;;26.04;42.39
40205;BME280;26963;42.666;23.366;2022-09-09T15:13:53;94874.44;;;25.82;42.29
40205;BME280;26963;42.666;23.366;2022-09-09T15:16:25;94909.69;;;25.95;42.49
40205;BME280;26963;42.666;23.366;2022-09-09T15:18:52;94893.25;;;25.95;42.64
40205;BME280;26963;42.666;23.366;2022-09-09T15:21:21;94931.63;;;26.09;42.93
40205;BME280;26963;42.666;23.366;2022-09-09T15:23:48;94858.41;;;25.70;42.54
40205;BME280;26963;42.666;23.366;2022-09-09T15:26:17;94906.59;;;26.07;42.90
40205;BME280;26963;42.666;23.366;2022-09-09T15:28:47;94917.53;;;26.18;43.13
40205;BME280;26963;42.666;23.366;2022-09-09T15:31:15;94897.97;;;26.09;43.05
40205;BME280;26963;42.666;23.366;2022-09-09T15:33:53;94910.47;;;26.20;43.12
40205;BME280;26963;42.666;23.366;2022-09-09T15:36:27;94908.13;;;26.26;42.95
40205;BME280;26963;42.666;23.366;2022-09-09T15:38:54;94883.84;;;26.10;43.10